createdAt,value
2022-12-01T00:01:28.971Z,-1.40
2022-12-01T00:03:57.622Z,-1.30
2022-12-01T00:06:25.495Z,-1.30
2022-12-01T00:09:16.546Z,-1.40
2022-12-01T00:11:48.679Z,-1.50
2022-12-01T00:14:16.591Z,-1.50
2022-12-01T00:16:44.910Z,-1.50
2022-12-01T00:19:12.704Z,-1.40
2022-12-01T00:21:40.740Z,-1.40
2022-12-01T00:24:10.345Z,-1.60
2022-12-01T00:26:39.428Z,-1.60
2022-12-01T00:29:07.181Z,-1.60
2022-12-01T00:31:35.009Z,-1.70
2022-12-01T00:34:05.727Z,-1.60
2022-12-01T00:36:37.265Z,-1.50
2022-12-01T00:39:04.954Z,-1.60
2022-12-01T00:41:32.860Z,-1.60
2022-12-01T00:44:01.053Z,-1.60
2022-12-01T00:46:29.139Z,-1.60
2022-12-01T00:48:57.206Z,-1.40
2022-12-01T00:51:25.756Z,-1.50
2022-12-01T00:53:53.716Z,-1.60
2022-12-01T00:56:21.739Z,-1.60
2022-12-01T00:58:49.764Z,-1.60
2022-12-01T01:01:17.606Z,-1.60
2022-12-01T01:03:45.337Z,-1.50
2022-12-01T01:06:13.844Z,-1.60
2022-12-01T01:08:41.919Z,-1.60
2022-12-01T01:11:10.008Z,-1.60
2022-12-01T01:13:38.277Z,-1.60
2022-12-01T01:16:16.260Z,-1.60
2022-12-01T01:18:44.371Z,-1.70
2022-12-01T01:21:17.839Z,-1.70
2022-12-01T01:23:45.540Z,-1.60
2022-12-01T01:26:19.609Z,-1.50
2022-12-01T01:28:48.487Z,-1.50
2022-12-01T01:31:26.859Z,-1.50
2022-12-01T01:33:56.179Z,-1.70
2022-12-01T01:36:25.502Z,-1.60
2022-12-01T01:38:54.634Z,-1.70
2022-12-01T01:41:23.425Z,-1.70
2022-12-01T01:44:03.282Z,-1.80
2022-12-01T01:46:33.930Z,-1.80
2022-12-01T01:49:03.449Z,-1.80
2022-12-01T01:51:50.644Z,-1.80
2022-12-01T01:54:39.596Z,-1.70
2022-12-01T01:57:09.948Z,-1.80
2022-12-01T01:59:39.235Z,-1.90
2022-12-01T02:02:08.938Z,-1.80
2022-12-01T02:04:40.652Z,-1.80
2022-12-01T02:07:09.381Z,-2.00
2022-12-01T02:09:36.978Z,-2.00
2022-12-01T02:12:53.973Z,-1.90
2022-12-01T02:15:45.809Z,-2.00
2022-12-01T02:18:49.016Z,-2.10
2022-12-01T02:21:25.047Z,-2.20
2022-12-01T02:24:15.816Z,-2.30
2022-12-01T02:27:15.359Z,-2.40
2022-12-01T02:29:48.892Z,-2.50
2022-12-01T02:32:31.823Z,-2.50
2022-12-01T02:35:15.283Z,-2.50
2022-12-01T02:38:06.807Z,-2.50
2022-12-01T02:40:47.469Z,-2.50
2022-12-01T02:43:18.290Z,-2.50
2022-12-01T02:46:23.731Z,-2.60
2022-12-01T02:48:54.721Z,-2.60
2022-12-01T02:51:29.435Z,-2.70
2022-12-01T02:54:02.539Z,-2.70
2022-12-01T02:56:30.441Z,-2.70
2022-12-01T02:58:58.282Z,-2.70
2022-12-01T03:01:50.774Z,-2.70
2022-12-01T03:04:25.250Z,-2.80
2022-12-01T03:06:58.457Z,-2.80
2022-12-01T03:09:49.259Z,-2.90
2022-12-01T03:12:24.006Z,-3.00
2022-12-01T03:15:28.663Z,-2.90
2022-12-01T03:18:05.731Z,-2.90
2022-12-01T03:20:59.142Z,-2.90
2022-12-01T03:23:32.220Z,-2.90
2022-12-01T03:26:03.315Z,-2.80
2022-12-01T03:28:36.990Z,-2.90
2022-12-01T03:31:09.405Z,-2.90
2022-12-01T03:33:43.143Z,-2.90
2022-12-01T03:36:16.961Z,-3.00
2022-12-01T03:38:49.276Z,-3.00
2022-12-01T03:41:22.059Z,-3.10
2022-12-01T03:43:55.236Z,-3.10
2022-12-01T03:46:33.435Z,-3.10
2022-12-01T03:49:02.079Z,-3.10
2022-12-01T03:51:38.799Z,-3.10
2022-12-01T03:54:32.702Z,-2.90
2022-12-01T03:57:06.046Z,-2.90
2022-12-01T03:59:36.404Z,-2.70
2022-12-01T04:02:07.040Z,-2.60
2022-12-01T04:04:35.030Z,-2.50
2022-12-01T04:07:02.748Z,-2.50
2022-12-01T04:09:30.354Z,-2.40
2022-12-01T04:12:16.272Z,-2.20
2022-12-01T04:14:43.889Z,-2.20
2022-12-01T04:17:11.641Z,-2.20
2022-12-01T04:19:39.615Z,-2.20
2022-12-01T04:22:07.124Z,-2.10
2022-12-01T04:24:34.976Z,-2.10
2022-12-01T04:27:02.901Z,-2.10
2022-12-01T04:29:30.788Z,-2.10
2022-12-01T04:31:58.787Z,-2.30
2022-12-01T04:34:26.440Z,-2.40
2022-12-01T04:36:54.147Z,-2.40
2022-12-01T04:39:22.081Z,-2.40
2022-12-01T04:41:49.830Z,-2.40
2022-12-01T04:44:17.652Z,-2.50
2022-12-01T04:46:45.469Z,-2.70
2022-12-01T04:49:13.230Z,-2.80
2022-12-01T04:51:40.879Z,-2.70
2022-12-01T04:54:08.974Z,-2.70
2022-12-01T04:56:36.544Z,-2.70
2022-12-01T04:59:04.436Z,-2.70
2022-12-01T05:01:32.392Z,-2.70
2022-12-01T05:04:01.412Z,-2.80
2022-12-01T05:06:29.707Z,-2.70
2022-12-01T05:09:00.506Z,-2.70
2022-12-01T05:11:30.374Z,-2.90
2022-12-01T05:13:58.311Z,-2.80
2022-12-01T05:16:30.027Z,-2.70
2022-12-01T05:19:19.421Z,-2.70
2022-12-01T05:21:49.074Z,-2.70
2022-12-01T05:24:17.920Z,-2.50
2022-12-01T05:26:46.415Z,-2.50
2022-12-01T05:29:14.269Z,-2.40
2022-12-01T05:31:42.241Z,-2.60
2022-12-01T05:34:10.005Z,-2.60
2022-12-01T05:36:37.773Z,-2.50
2022-12-01T05:39:06.075Z,-2.40
2022-12-01T05:41:33.857Z,-2.50
2022-12-01T05:44:01.906Z,-2.60
2022-12-01T05:46:29.785Z,-2.50
2022-12-01T05:48:57.771Z,-2.40
2022-12-01T05:51:25.683Z,-2.60
2022-12-01T05:53:53.620Z,-2.80
2022-12-01T05:56:22.022Z,-2.70
2022-12-01T05:58:49.675Z,-2.60
2022-12-01T06:01:17.628Z,-2.50
2022-12-01T06:03:45.412Z,-2.40
2022-12-01T06:06:13.190Z,-2.40
2022-12-01T06:08:40.878Z,-2.30
2022-12-01T06:11:08.490Z,-2.50
2022-12-01T06:13:36.178Z,-2.50
2022-12-01T06:16:06.716Z,-2.40
2022-12-01T06:18:37.252Z,-2.30
2022-12-01T06:21:06.915Z,-2.20
2022-12-01T06:23:35.128Z,-2.10
2022-12-01T06:26:03.257Z,-2.10
2022-12-01T06:28:31.386Z,-2.00
2022-12-01T06:31:03.388Z,-2.00
2022-12-01T06:33:32.048Z,-2.10
2022-12-01T06:36:07.178Z,-2.20
2022-12-01T06:38:37.411Z,-2.20
2022-12-01T06:41:05.705Z,-2.20
2022-12-01T06:43:36.714Z,-2.20
2022-12-01T06:46:05.592Z,-2.20
2022-12-01T06:48:33.506Z,-2.10
2022-12-01T06:51:02.205Z,-2.00
2022-12-01T06:53:30.557Z,-2.10
2022-12-01T06:56:06.380Z,-2.20
2022-12-01T06:58:34.872Z,-2.10
2022-12-01T07:01:12.599Z,-1.90
2022-12-01T07:03:40.866Z,-1.80
2022-12-01T07:06:08.788Z,-1.70
2022-12-01T07:08:36.524Z,-1.60
2022-12-01T07:11:09.703Z,-1.50
2022-12-01T07:13:39.732Z,-1.40
2022-12-01T07:16:08.755Z,-1.30
2022-12-01T07:18:37.682Z,-1.40
2022-12-01T07:21:09.410Z,-1.50
2022-12-01T07:23:37.936Z,-1.50
2022-12-01T07:26:10.099Z,-1.40
2022-12-01T07:28:38.298Z,-1.30
2022-12-01T07:31:08.749Z,-1.30
2022-12-01T07:33:37.103Z,-1.30
2022-12-01T07:36:06.410Z,-1.30
2022-12-01T07:38:36.039Z,-1.40
2022-12-01T07:41:13.133Z,-1.40
2022-12-01T07:43:41.984Z,-1.30
2022-12-01T07:46:23.245Z,-1.20
2022-12-01T07:48:53.798Z,-1.20
2022-12-01T07:51:27.087Z,-1.20
2022-12-01T07:53:55.270Z,-0.90
2022-12-01T07:56:23.915Z,-0.90
2022-12-01T07:58:52.397Z,-0.70
2022-12-01T08:01:23.101Z,-0.70
2022-12-01T08:03:53.918Z,-0.70
2022-12-01T08:06:23.198Z,-0.80
2022-12-01T08:08:51.610Z,-1.10
2022-12-01T08:11:20.929Z,-1.20
2022-12-01T08:13:52.147Z,-1.10
2022-12-01T08:16:23.112Z,-1.00
2022-12-01T08:18:52.125Z,-1.30
2022-12-01T08:21:23.559Z,-1.00
2022-12-01T08:23:56.661Z,-0.90
2022-12-01T08:26:27.205Z,-1.00
2022-12-01T08:28:56.366Z,-0.80
2022-12-01T08:31:28.638Z,-0.70
2022-12-01T08:33:57.255Z,-0.80
2022-12-01T08:36:26.051Z,-0.50
2022-12-01T08:38:55.801Z,-0.50
2022-12-01T08:41:25.309Z,-0.50
2022-12-01T08:43:59.227Z,-0.70
2022-12-01T08:46:31.525Z,-0.60
2022-12-01T08:49:01.129Z,-0.60
2022-12-01T08:51:29.761Z,-0.70
2022-12-01T08:53:59.378Z,-0.80
2022-12-01T08:56:29.662Z,-0.60
2022-12-01T08:58:58.468Z,-0.90
2022-12-01T09:01:27.881Z,-0.60
2022-12-01T09:04:06.784Z,-0.80
2022-12-01T09:06:42.137Z,-0.80
2022-12-01T09:09:13.599Z,-0.60
2022-12-01T09:11:44.431Z,-0.90
2022-12-01T09:14:13.823Z,-0.70
2022-12-01T09:16:44.903Z,-0.80
2022-12-01T09:19:23.431Z,-0.50
2022-12-01T09:21:53.862Z,-0.50
2022-12-01T09:24:22.364Z,-0.60
2022-12-01T09:26:51.223Z,-0.70
2022-12-01T09:29:19.419Z,-0.40
2022-12-01T09:31:47.820Z,-0.90
2022-12-01T09:34:18.226Z,-0.70
2022-12-01T09:36:47.817Z,-0.50
2022-12-01T09:39:21.369Z,-0.30
2022-12-01T09:42:08.991Z,-0.20
2022-12-01T09:44:49.916Z,-0.10
2022-12-01T09:47:30.356Z,0.10
2022-12-01T09:50:12.348Z,0.00
2022-12-01T09:52:51.633Z,-0.20
2022-12-01T09:55:24.260Z,-0.20
2022-12-01T09:57:58.295Z,0.30
2022-12-01T10:00:30.949Z,0.40
2022-12-01T10:02:59.187Z,0.50
2022-12-01T10:06:26.901Z,0.60
2022-12-01T10:09:17.574Z,0.40
2022-12-01T10:11:50.956Z,0.80
2022-12-01T10:14:21.475Z,1.10
2022-12-01T10:16:49.100Z,1.10
2022-12-01T10:19:23.120Z,1.00
2022-12-01T10:22:20.579Z,1.30
2022-12-01T10:25:01.161Z,1.40
2022-12-01T10:27:29.222Z,1.00
2022-12-01T10:30:06.185Z,0.80
2022-12-01T10:32:46.343Z,0.70
2022-12-01T10:35:19.733Z,1.20
2022-12-01T10:37:52.284Z,1.00
2022-12-01T10:40:20.165Z,1.10
2022-12-01T10:42:50.516Z,0.40
2022-12-01T10:45:26.409Z,0.50
2022-12-01T10:48:15.329Z,0.70
2022-12-01T10:50:50.843Z,0.60
2022-12-01T10:53:28.582Z,0.80
2022-12-01T10:56:09.031Z,0.70
2022-12-01T10:58:43.555Z,1.00
2022-12-01T11:01:22.542Z,1.10
2022-12-01T11:04:01.888Z,1.30
2022-12-01T11:06:31.282Z,0.70
2022-12-01T11:09:26.063Z,0.70
2022-12-01T11:12:00.207Z,0.50
2022-12-01T11:14:45.060Z,1.10
2022-12-01T11:17:26.659Z,1.30
2022-12-01T11:19:54.925Z,1.70
2022-12-01T11:22:24.087Z,1.90
2022-12-01T11:24:57.977Z,1.80
2022-12-01T11:27:29.816Z,2.20
2022-12-01T11:30:23.050Z,2.40
2022-12-01T11:33:00.119Z,2.20
2022-12-01T11:35:35.243Z,2.10
2022-12-01T11:38:28.935Z,1.60
2022-12-01T11:40:56.457Z,1.70
2022-12-01T11:43:35.362Z,1.70
2022-12-01T11:46:07.120Z,1.70
2022-12-01T11:48:36.604Z,1.40
2022-12-01T11:51:09.790Z,1.60
2022-12-01T11:53:40.561Z,1.70
2022-12-01T11:56:29.016Z,2.00
2022-12-01T11:58:56.993Z,2.00
2022-12-01T12:01:39.801Z,2.20
2022-12-01T12:04:20.129Z,2.00
2022-12-01T12:07:09.895Z,1.60
2022-12-01T12:10:03.310Z,1.20
2022-12-01T12:13:04.137Z,1.30
2022-12-01T12:15:58.896Z,1.20
2022-12-01T12:18:48.847Z,1.30
2022-12-01T12:21:33.118Z,1.50
2022-12-01T12:24:01.068Z,1.60
2022-12-01T12:26:33.512Z,1.40
2022-12-01T12:29:57.801Z,1.50
2022-12-01T12:32:33.133Z,1.40
2022-12-01T12:35:07.262Z,1.50
2022-12-01T12:37:38.478Z,1.60
2022-12-01T12:40:26.907Z,1.80
2022-12-01T12:43:10.064Z,1.30
2022-12-01T12:46:07.749Z,1.60
2022-12-01T12:49:18.672Z,1.60
2022-12-01T12:52:08.893Z,1.80
2022-12-01T12:54:49.343Z,1.80
2022-12-01T12:57:28.847Z,1.40
2022-12-01T13:00:02.813Z,1.10
2022-12-01T13:02:45.841Z,1.20
2022-12-01T13:05:45.766Z,1.30
2022-12-01T13:08:31.827Z,1.00
2022-12-01T13:11:32.046Z,1.10
2022-12-01T13:14:15.443Z,1.20
2022-12-01T13:16:47.966Z,1.30
2022-12-01T13:19:19.703Z,1.10
2022-12-01T13:21:50.575Z,1.10
2022-12-01T13:24:23.343Z,1.00
2022-12-01T13:27:15.206Z,0.50
2022-12-01T13:29:50.438Z,0.60
2022-12-01T13:32:46.354Z,0.80
2022-12-01T13:35:23.772Z,0.80
2022-12-01T13:37:51.981Z,0.70
2022-12-01T13:40:20.377Z,0.70
2022-12-01T13:43:15.973Z,0.50
2022-12-01T13:45:44.124Z,0.60
2022-12-01T13:48:52.489Z,0.60
2022-12-01T13:51:20.359Z,0.40
2022-12-01T13:54:25.346Z,0.50
2022-12-01T13:57:21.867Z,0.70
2022-12-01T13:59:58.689Z,0.60
2022-12-01T14:02:33.263Z,0.40
2022-12-01T14:05:23.416Z,0.50
2022-12-01T14:07:53.062Z,0.60
2022-12-01T14:10:31.326Z,0.60
2022-12-01T14:13:04.130Z,0.60
2022-12-01T14:15:43.349Z,0.50
2022-12-01T14:18:38.423Z,0.50
2022-12-01T14:21:09.862Z,0.10
2022-12-01T14:24:00.537Z,0.20
2022-12-01T14:26:30.752Z,0.10
2022-12-01T14:29:02.107Z,0.20
2022-12-01T14:31:33.315Z,0.20
2022-12-01T14:34:13.170Z,0.10
2022-12-01T14:36:46.058Z,-0.20
2022-12-01T14:39:24.499Z,-0.20
2022-12-01T14:42:12.647Z,-0.10
2022-12-01T14:44:55.628Z,0.00
2022-12-01T14:47:28.428Z,-0.10
2022-12-01T14:50:01.969Z,-0.10
2022-12-01T14:52:29.985Z,-0.20
2022-12-01T14:55:01.241Z,-0.10
2022-12-01T14:57:42.136Z,-0.10
2022-12-01T15:00:14.084Z,-0.20
2022-12-01T15:02:52.798Z,-0.30
2022-12-01T15:05:23.983Z,-0.40
2022-12-01T15:08:06.763Z,-0.40
2022-12-01T15:10:51.503Z,-0.30
2022-12-01T15:13:28.684Z,-0.50
2022-12-01T15:16:00.491Z,-0.50
2022-12-01T15:18:34.498Z,-0.70
2022-12-01T15:21:22.089Z,-0.60
2022-12-01T15:24:05.471Z,-0.70
2022-12-01T15:26:46.620Z,-0.80
2022-12-01T15:29:15.543Z,-0.70
2022-12-01T15:31:48.784Z,-0.70
2022-12-01T15:34:21.420Z,-0.70
2022-12-01T15:36:51.635Z,-0.80
2022-12-01T15:39:26.860Z,-0.70
2022-12-01T15:41:55.933Z,-0.80
2022-12-01T15:44:29.135Z,-0.70
2022-12-01T15:46:58.795Z,-0.80
2022-12-01T15:49:49.210Z,-0.70
2022-12-01T15:52:17.597Z,-0.70
2022-12-01T15:54:50.627Z,-0.80
2022-12-01T15:57:21.745Z,-0.90
2022-12-01T15:59:56.226Z,-0.80
2022-12-01T16:02:32.185Z,-0.80
2022-12-01T16:05:10.209Z,-0.90
2022-12-01T16:08:11.368Z,-0.80
2022-12-01T16:10:29.559Z,-0.70
2022-12-01T16:13:35.313Z,-0.70
2022-12-01T16:16:37.865Z,-0.60
2022-12-01T16:19:27.406Z,-0.60
2022-12-01T16:21:59.925Z,-0.60
2022-12-01T16:24:30.894Z,-0.50
2022-12-01T16:27:30.944Z,-0.50
2022-12-01T16:30:03.722Z,-0.40
2022-12-01T16:32:42.091Z,-0.30
2022-12-01T16:35:22.318Z,-0.50
2022-12-01T16:37:50.995Z,-0.40
2022-12-01T16:40:19.324Z,-0.40
2022-12-01T16:42:50.809Z,-0.30
2022-12-01T16:45:20.511Z,-0.30
2022-12-01T16:47:49.723Z,-0.30
2022-12-01T16:50:20.291Z,-0.20
2022-12-01T16:52:48.332Z,-0.30
2022-12-01T16:55:40.226Z,-0.20
2022-12-01T16:58:09.489Z,-0.20
2022-12-01T17:00:37.746Z,-0.10
2022-12-01T17:03:06.733Z,-0.10
2022-12-01T17:05:35.362Z,-0.10
2022-12-01T17:08:04.017Z,-0.10
2022-12-01T17:10:32.986Z,-0.10
2022-12-01T17:13:01.189Z,-0.10
2022-12-01T17:15:29.638Z,-0.10
2022-12-01T17:17:58.169Z,-0.20
2022-12-01T17:20:28.766Z,-0.10
2022-12-01T17:22:57.214Z,-0.10
2022-12-01T17:25:26.288Z,0.00
2022-12-01T17:27:55.837Z,0.00
2022-12-01T17:30:24.463Z,0.00
2022-12-01T17:32:52.197Z,0.00
2022-12-01T17:35:20.271Z,-0.10
2022-12-01T17:37:48.028Z,0.00
2022-12-01T17:40:16.996Z,-0.20
2022-12-01T17:42:50.504Z,-0.10
2022-12-01T17:45:20.021Z,-0.10
2022-12-01T17:47:48.078Z,-0.10
2022-12-01T17:50:17.493Z,0.00
2022-12-01T17:52:46.569Z,0.00
2022-12-01T17:55:14.758Z,0.00
2022-12-01T17:57:44.109Z,0.00
2022-12-01T18:00:13.896Z,0.00
2022-12-01T18:02:42.091Z,0.00
2022-12-01T18:05:10.264Z,-0.10
2022-12-01T18:07:38.928Z,-0.20
2022-12-01T18:10:07.459Z,-0.10
2022-12-01T18:12:35.673Z,-0.10
2022-12-01T18:15:05.296Z,-0.20
2022-12-01T18:17:33.399Z,-0.20
2022-12-01T18:20:01.584Z,-0.20
2022-12-01T18:22:34.196Z,-0.20
2022-12-01T18:25:02.481Z,-0.20
2022-12-01T18:27:30.701Z,-0.10
2022-12-01T18:29:58.655Z,-0.10
2022-12-01T18:32:26.740Z,-0.10
2022-12-01T18:34:54.875Z,-0.10
2022-12-01T18:37:23.101Z,-0.20
2022-12-01T18:39:51.457Z,-0.20
2022-12-01T18:42:19.697Z,-0.10
2022-12-01T18:44:47.892Z,-0.20
2022-12-01T18:47:20.421Z,-0.20
2022-12-01T18:49:50.180Z,-0.20
2022-12-01T18:52:18.500Z,-0.30
2022-12-01T18:54:47.265Z,-0.20
2022-12-01T18:57:15.667Z,-0.30
2022-12-01T18:59:46.754Z,-0.20
2022-12-01T19:02:16.856Z,-0.30
2022-12-01T19:04:50.528Z,-0.30
2022-12-01T19:07:19.391Z,-0.30
2022-12-01T19:09:47.726Z,-0.30
2022-12-01T19:12:18.123Z,-0.40
2022-12-01T19:14:49.335Z,-0.30
2022-12-01T19:17:17.497Z,-0.30
2022-12-01T19:19:46.415Z,-0.30
2022-12-01T19:22:14.162Z,-0.30
2022-12-01T19:24:47.131Z,-0.20
2022-12-01T19:27:22.209Z,-0.20
2022-12-01T19:29:52.613Z,-0.20
2022-12-01T19:32:21.477Z,-0.20
2022-12-01T19:34:51.088Z,-0.10
2022-12-01T19:37:21.731Z,-0.20
2022-12-01T19:39:51.244Z,-0.20
2022-12-01T19:42:19.519Z,-0.20
2022-12-01T19:44:48.500Z,-0.20
2022-12-01T19:47:21.939Z,-0.30
2022-12-01T19:49:51.831Z,-0.30
2022-12-01T19:52:20.766Z,-0.20
2022-12-01T19:54:49.561Z,-0.30
2022-12-01T19:57:17.700Z,-0.20
2022-12-01T19:59:46.209Z,-0.10
2022-12-01T20:02:14.131Z,-0.10
2022-12-01T20:04:42.510Z,0.00
2022-12-01T20:07:12.087Z,0.00
2022-12-01T20:09:46.947Z,0.10
2022-12-01T20:12:18.129Z,0.00
2022-12-01T20:14:47.203Z,0.00
2022-12-01T20:17:16.140Z,0.00
2022-12-01T20:19:45.175Z,0.00
2022-12-01T20:22:13.737Z,0.00
2022-12-01T20:24:43.766Z,0.00
2022-12-01T20:27:11.994Z,0.00
2022-12-01T20:29:39.841Z,0.10
2022-12-01T20:32:08.362Z,0.10
2022-12-01T20:34:36.640Z,0.10
2022-12-01T20:37:05.516Z,0.20
2022-12-01T20:39:35.664Z,0.20
2022-12-01T20:42:03.671Z,0.20
2022-12-01T20:44:31.907Z,0.10
2022-12-01T20:47:01.824Z,0.00
2022-12-01T20:49:29.932Z,0.00
2022-12-01T20:51:57.976Z,-0.30
2022-12-01T20:54:28.909Z,-0.30
2022-12-01T20:57:00.559Z,-0.20
2022-12-01T20:59:30.000Z,-0.10
2022-12-01T21:01:59.748Z,-0.10
2022-12-01T21:04:29.992Z,-0.20
2022-12-01T21:06:59.021Z,-0.30
2022-12-01T21:09:30.190Z,-0.40
2022-12-01T21:12:19.277Z,-0.60
2022-12-01T21:15:12.058Z,-0.50
2022-12-01T21:17:45.804Z,-0.30
2022-12-01T21:20:26.049Z,-0.20
2022-12-01T21:23:00.819Z,-0.10
2022-12-01T21:25:29.679Z,-0.10
2022-12-01T21:28:01.994Z,-0.10
2022-12-01T21:30:30.208Z,0.00
2022-12-01T21:33:18.891Z,-0.10
2022-12-01T21:35:49.464Z,-0.20
2022-12-01T21:38:21.795Z,-0.20
2022-12-01T21:40:52.592Z,-0.30
2022-12-01T21:43:23.021Z,-0.20
2022-12-01T21:45:58.260Z,-0.20
2022-12-01T21:48:35.287Z,-0.20
2022-12-01T21:51:19.285Z,-0.20
2022-12-01T21:53:49.036Z,-0.20
2022-12-01T21:56:27.562Z,0.00
2022-12-01T21:59:14.330Z,-0.30
2022-12-01T22:01:42.433Z,-0.40
2022-12-01T22:04:18.937Z,-0.20
2022-12-01T22:06:52.243Z,-0.20
2022-12-01T22:09:35.454Z,-0.30
2022-12-01T22:12:27.823Z,-0.20
2022-12-01T22:15:01.851Z,-0.20
2022-12-01T22:17:30.633Z,-0.30
2022-12-01T22:20:01.719Z,-0.20
2022-12-01T22:22:32.869Z,-0.20
2022-12-01T22:25:15.700Z,-0.20
2022-12-01T22:27:44.516Z,-0.50
2022-12-01T22:30:20.804Z,-0.40
2022-12-01T22:32:58.765Z,-0.30
2022-12-01T22:35:36.635Z,-0.40
2022-12-01T22:38:07.693Z,-0.50
2022-12-01T22:40:40.414Z,-0.50
2022-12-01T22:43:17.604Z,-0.40
2022-12-01T22:46:00.047Z,-0.30
2022-12-01T22:48:27.739Z,-0.30
2022-12-01T22:50:56.089Z,-0.30
2022-12-01T22:53:30.150Z,-0.10
2022-12-01T22:56:00.775Z,-0.10
2022-12-01T22:58:31.806Z,-0.10
2022-12-01T23:01:20.953Z,-0.30
2022-12-01T23:03:50.172Z,-0.30
2022-12-01T23:06:46.244Z,-0.20
2022-12-01T23:09:15.263Z,-0.60
2022-12-01T23:11:44.693Z,-0.40
2022-12-01T23:14:24.034Z,-0.40
2022-12-01T23:17:00.679Z,-0.50
2022-12-01T23:19:28.421Z,-0.60
2022-12-01T23:21:56.022Z,-0.60
2022-12-01T23:24:23.563Z,-0.50
2022-12-01T23:26:51.127Z,-0.40
2022-12-01T23:29:18.960Z,-0.30
2022-12-01T23:31:48.141Z,-0.30
2022-12-01T23:34:17.611Z,-0.20
2022-12-01T23:36:46.740Z,-0.30
2022-12-01T23:39:17.025Z,-0.20
2022-12-01T23:41:52.102Z,-0.30
2022-12-01T23:44:30.060Z,-0.30
2022-12-01T23:46:59.426Z,-0.20
2022-12-01T23:49:31.462Z,-0.40
2022-12-01T23:52:01.275Z,-0.30
2022-12-01T23:54:34.878Z,-0.30
2022-12-01T23:57:10.955Z,-0.40
2022-12-01T23:59:39.086Z,-0.40
